Time;durP1;ratioP1;P1;durP2;ratioP2;P2;SDS_P1;SDS_P2;PMS_P1;PMS_P2;Temp;Humidity;BMP_temperature;BMP_pressure;BME280_temperature;BME280_humidity;BME280_pressure;Samples;Min_cycle;Max_cycle;Signal;HPM_P1;HPM_P2
2022/01/21 03:46:15;;;;;;;16.77;2.70;;;0.70;86.70;;;;;;5327563;24;20055;-79
2022/01/21 03:48:41;;;;;;;8.07;1.77;;;0.70;86.20;;;;;;4798390;29;20084;-80
2022/01/21 03:51:07;;;;;;;3.07;1.27;;;0.70;86.70;;;;;;4754202;30;20046;-81
2022/01/21 03:53:33;;;;;;;10.63;2.15;;;0.70;85.90;;;;;;4783629;30;20039;-80
2022/01/21 03:55:59;;;;;;;3.25;1.67;;;0.70;86.50;;;;;;4754173;30;20042;-81
2022/01/21 03:58:26;;;;;;;11.10;2.28;;;0.70;86.10;;;;;;4781577;30;20051;-81
2022/01/21 04:00:54;;;;;;;;;;;0.60;86.40;;;;;;4783884;30;20096;-81
2022/01/21 04:03:22;;;;;;;11.63;2.00;;;0.60;86.70;;;;;;4798515;30;19909;-80
2022/01/21 04:05:49;;;;;;;8.50;2.28;;;0.60;86.50;;;;;;4783642;30;20054;-79
2022/01/21 04:08:16;;;;;;;9.00;1.37;;;0.60;86.70;;;;;;4783483;30;20115;-80
2022/01/21 04:10:48;;;;;;;9.80;2.30;;;0.60;87.10;;;;;;4770048;30;20034;-80
2022/01/21 04:13:18;;;;;;;12.68;2.45;;;0.60;87.10;;;;;;4780479;30;20155;-80
2022/01/21 04:15:48;;;;;;;12.73;1.95;;;0.50;86.80;;;;;;4769025;30;20027;-80
2022/01/21 04:18:16;;;;;;;11.10;2.35;;;0.50;86.80;;;;;;4783243;30;20077;-80
2022/01/21 04:20:46;;;;;;;9.32;1.67;;;0.50;86.80;;;;;;4754684;30;20384;-80
2022/01/21 04:23:13;;;;;;;16.23;2.45;;;0.50;86.40;;;;;;4783192;30;20031;-80
2022/01/21 04:25:40;;;;;;;6.60;1.45;;;0.40;86.20;;;;;;4780090;30;20326;-82
2022/01/21 04:28:06;;;;;;;8.88;1.75;;;0.50;85.30;;;;;;4794932;30;20101;-79
2022/01/21 04:30:33;;;;;;;8.57;2.08;;;0.50;85.90;;;;;;4795034;30;20346;-79
2022/01/21 04:32:59;;;;;;;7.55;1.73;;;0.50;85.30;;;;;;4783090;30;20384;-79
2022/01/21 04:35:28;;;;;;;7.47;1.75;;;0.50;85.20;;;;;;4783073;30;20038;-79
2022/01/21 04:38:01;;;;;;;11.15;2.05;;;0.50;84.90;;;;;;4782865;30;20113;-80
2022/01/21 04:40:30;;;;;;;5.25;1.80;;;0.50;84.20;;;;;;4779896;30;20039;-81
2022/01/21 04:48:34;;;;;;;8.38;2.13;;;0.50;83.00;;;;;;4766566;30;20039;-80
2022/01/21 04:51:13;;;;;;;7.72;1.67;;;0.50;83.20;;;;;;4794495;30;20035;-80
2022/01/21 04:53:42;;;;;;;8.98;2.17;;;0.50;82.90;;;;;;4765869;30;20223;-80
2022/01/21 04:56:16;;;;;;;9.43;2.00;;;0.50;82.80;;;;;;4779663;30;20059;-79
2022/01/21 04:58:43;;;;;;;12.23;1.80;;;0.50;82.80;;;;;;4794335;30;20235;-79
2022/01/21 05:01:10;;;;;;;5.57;1.63;;;0.50;83.00;;;;;;4764539;30;20338;-81
2022/01/21 05:03:37;;;;;;;;;;;0.50;82.70;;;;;;4765141;30;20035;-81
2022/01/21 05:06:05;;;;;;;7.53;2.03;;;0.50;82.90;;;;;;4779628;30;19952;-81
2022/01/21 05:08:41;;;;;;;10.38;2.08;;;0.50;82.90;;;;;;4764531;30;20043;-79
2022/01/21 05:11:08;;;;;;;8.07;2.27;;;0.50;82.10;;;;;;4775084;30;20051;-79
2022/01/21 05:13:40;;;;;;;12.13;2.70;;;0.50;82.50;;;;;;4765346;30;20103;-81
2022/01/21 05:16:18;;;;;;;12.15;2.42;;;0.50;82.70;;;;;;4779111;30;20042;-79
2022/01/21 05:18:44;;;;;;;8.70;1.83;;;0.40;82.90;;;;;;4776414;30;20059;-79
2022/01/21 05:21:27;;;;;;;14.38;2.60;;;0.50;82.70;;;;;;4779259;30;20042;-79
2022/01/21 05:24:10;;;;;;;10.75;2.22;;;0.50;82.80;;;;;;4768674;30;20239;-79
2022/01/21 05:26:38;;;;;;;10.10;1.87;;;0.50;82.30;;;;;;4764338;30;20031;-82
2022/01/21 05:29:06;;;;;;;8.30;1.98;;;0.50;82.30;;;;;;4764120;30;20289;-79
2022/01/21 05:31:48;;;;;;;8.38;1.88;;;0.50;81.60;;;;;;4774296;30;20041;-79
2022/01/21 05:34:23;;;;;;;14.35;1.90;;;0.50;82.30;;;;;;4779129;30;20060;-79
2022/01/21 05:37:18;;;;;;;17.23;1.77;;;0.50;81.70;;;;;;4760495;30;20036;-79
2022/01/21 05:40:15;;;;;;;11.98;2.45;;;0.50;81.00;;;;;;4724490;30;20048;-79
2022/01/21 05:42:56;;;;;;;9.15;2.05;;;0.50;81.30;;;;;;4696350;30;20041;-79
2022/01/21 05:48:44;;;;;;;7.53;1.75;;;0.50;80.30;;;;;;4719588;30;20049;-80
2022/01/21 05:51:46;;;;;;;13.98;1.85;;;0.50;80.20;;;;;;4687587;30;20034;-80
2022/01/21 05:54:15;;;;;;;9.45;2.03;;;0.50;80.30;;;;;;4699559;30;20369;-80
2022/01/21 05:57:07;;;;;;;14.88;2.25;;;0.50;79.90;;;;;;4656590;30;20035;-79
2022/01/21 05:59:34;;;;;;;8.90;1.60;;;0.50;79.60;;;;;;4647313;30;20051;-79
2022/01/21 06:02:06;;;;;;;13.30;1.50;;;0.50;79.70;;;;;;4645023;30;20129;-80
2022/01/21 06:04:33;;;;;;;14.60;2.45;;;0.50;79.70;;;;;;4641077;30;20050;-81
2022/01/21 06:07:00;;;;;;;8.77;2.58;;;0.40;80.10;;;;;;4659269;30;20051;-81
2022/01/21 06:09:27;;;;;;;9.18;1.45;;;0.40;80.10;;;;;;4642322;30;20043;-81
2022/01/21 06:11:53;;;;;;;;;;;0.40;79.90;;;;;;4647008;30;20092;-81
2022/01/21 06:14:19;;;;;;;8.15;1.90;;;0.40;80.30;;;;;;4668779;30;19916;-80
2022/01/21 06:16:46;;;;;;;15.20;2.58;;;0.40;80.00;;;;;;4656644;30;20043;-81
2022/01/21 06:19:13;;;;;;;5.82;1.50;;;0.40;80.70;;;;;;4655892;30;20091;-81
2022/01/21 06:21:39;;;;;;;16.30;2.42;;;0.40;81.00;;;;;;4654297;30;20236;-79
2022/01/21 06:24:05;;;;;;;17.63;2.25;;;0.30;80.70;;;;;;4655537;30;20054;-79
2022/01/21 06:26:31;;;;;;;8.63;1.92;;;0.30;81.10;;;;;;4686877;30;20069;-80
2022/01/21 06:28:57;;;;;;;18.35;2.45;;;0.30;81.20;;;;;;4686495;30;20102;-80
2022/01/21 06:31:23;;;;;;;8.23;1.92;;;0.30;81.10;;;;;;4706384;30;20126;-80
2022/01/21 06:33:49;;;;;;;9.73;1.95;;;0.40;81.30;;;;;;4706952;30;20295;-81
2022/01/21 06:36:14;;;;;;;9.65;2.30;;;0.40;81.30;;;;;;4775539;30;20032;-81
2022/01/21 06:38:40;;;;;;;22.95;3.58;;;0.40;81.20;;;;;;4776453;30;20071;-81
2022/01/21 06:41:06;;;;;;;6.97;2.08;;;0.40;81.20;;;;;;4778298;30;20043;-81
2022/01/21 06:43:32;;;;;;;15.25;2.95;;;0.40;81.20;;;;;;4758845;30;20075;-81
2022/01/21 06:45:58;;;;;;;12.10;2.05;;;0.40;80.80;;;;;;4763554;30;20040;-81
2022/01/21 06:48:25;;;;;;;14.40;3.67;;;0.30;80.80;;;;;;4772675;30;20099;-81
2022/01/21 06:50:51;;;;;;;14.13;2.20;;;0.40;80.60;;;;;;4773806;30;20028;-80
2022/01/21 06:53:17;;;;;;;12.07;2.83;;;0.40;80.10;;;;;;4792596;29;20038;-81
2022/01/21 06:55:42;;;;;;;9.85;2.38;;;0.30;80.20;;;;;;4769364;30;20111;-81
2022/01/21 06:58:08;;;;;;;13.60;2.17;;;0.40;80.40;;;;;;4752379;30;20039;-81
2022/01/21 07:00:34;;;;;;;13.25;2.05;;;0.40;80.10;;;;;;4769490;30;20149;-81
2022/01/21 07:03:00;;;;;;;6.38;1.80;;;0.40;79.60;;;;;;4775136;30;20040;-81
2022/01/21 07:05:29;;;;;;;15.27;2.53;;;0.40;80.00;;;;;;4777118;30;20040;-81
2022/01/21 07:07:56;;;;;;;13.02;3.72;;;0.40;78.80;;;;;;4774808;30;20075;-81
2022/01/21 07:10:22;;;;;;;9.80;2.38;;;0.40;79.40;;;;;;4769684;30;20055;-81
2022/01/21 07:12:48;;;;;;;15.77;3.33;;;0.50;79.00;;;;;;4766842;30;20046;-81
2022/01/21 07:15:16;;;;;;;7.47;1.65;;;0.50;78.80;;;;;;4760363;30;20127;-81
2022/01/21 07:17:48;;;;;;;18.92;1.95;;;0.50;78.20;;;;;;4775998;30;20040;-81
2022/01/21 07:20:15;;;;;;;10.25;2.28;;;0.60;77.60;;;;;;4768147;30;20048;-81
2022/01/21 07:22:42;;;;;;;14.15;1.90;;;0.60;76.60;;;;;;4762720;30;20055;-81
2022/01/21 07:25:08;;;;;;;8.60;3.13;;;0.70;77.40;;;;;;4762541;30;20066;-81
2022/01/21 07:27:34;;;;;;;15.45;3.83;;;0.70;76.40;;;;;;4762241;30;20046;-81
2022/01/21 07:30:01;;;;;;;9.02;2.00;;;0.80;77.30;;;;;;4766162;30;20039;-80
2022/01/21 07:32:26;;;;;;;18.70;2.97;;;0.80;76.00;;;;;;4761733;30;20078;-81
2022/01/21 07:34:52;;;;;;;8.50;1.80;;;0.80;75.80;;;;;;4768745;30;20313;-81
2022/01/21 07:37:19;;;;;;;7.47;2.20;;;1.00;75.70;;;;;;4785397;30;20119;-81
2022/01/21 07:39:44;;;;;;;12.27;2.10;;;1.40;75.90;;;;;;4760848;30;20044;-81
2022/01/21 07:42:10;;;;;;;12.35;1.88;;;1.70;72.60;;;;;;4797712;29;20092;-81
2022/01/21 07:44:36;;;;;;;13.38;2.58;;;1.70;71.90;;;;;;4793407;30;20213;-81
2022/01/21 07:47:02;;;;;;;18.73;2.20;;;1.60;71.50;;;;;;4785377;29;20062;-81
2022/01/21 07:49:28;;;;;;;8.45;1.52;;;1.40;72.20;;;;;;4785415;30;20278;-81
2022/01/21 07:51:54;;;;;;;7.95;2.53;;;1.40;71.30;;;;;;4788938;30;20040;-81
2022/01/21 07:54:20;;;;;;;15.88;2.10;;;1.50;73.00;;;;;;4777420;30;20103;-81
2022/01/21 07:56:45;;;;;;;9.50;2.03;;;1.50;72.70;;;;;;4761824;30;20032;-81
2022/01/21 07:59:14;;;;;;;23.20;3.25;;;1.60;72.10;;;;;;4760596;30;20114;-81
2022/01/21 08:01:40;;;;;;;12.15;2.05;;;1.60;71.60;;;;;;4784989;30;20231;-81
2022/01/21 08:04:07;;;;;;;12.07;2.05;;;1.70;71.30;;;;;;4791807;30;20043;-81
2022/01/21 08:06:32;;;;;;;;;;;1.70;70.90;;;;;;4777764;30;20114;-81
2022/01/21 08:08:59;;;;;;;9.97;2.33;;;1.70;70.50;;;;;;4778430;30;20254;-81
2022/01/21 08:11:26;;;;;;;11.38;2.25;;;1.60;70.30;;;;;;4776878;30;20036;-81
2022/01/21 08:13:52;;;;;;;15.40;2.40;;;1.60;70.60;;;;;;4772212;30;20028;-81
2022/01/21 08:16:18;;;;;;;10.53;1.73;;;1.60;70.10;;;;;;4778068;30;20050;-81
2022/01/21 08:18:44;;;;;;;16.95;3.10;;;1.60;70.70;;;;;;4758872;30;20285;-81
2022/01/21 08:21:18;;;;;;;11.02;2.30;;;1.60;70.00;;;;;;4785523;30;20048;-81
2022/01/21 08:23:48;;;;;;;12.73;2.25;;;1.70;70.20;;;;;;4785636;30;20040;-81
2022/01/21 08:26:14;;;;;;;10.90;1.92;;;1.70;69.20;;;;;;4774301;30;20103;-81
2022/01/21 08:28:40;;;;;;;10.57;1.88;;;1.70;69.30;;;;;;4776975;30;20036;-81
2022/01/21 08:31:06;;;;;;;13.20;2.08;;;1.70;70.30;;;;;;4776414;30;20292;-81
2022/01/21 08:33:31;;;;;;;11.88;1.65;;;1.70;69.90;;;;;;4784235;30;20097;-81
2022/01/21 08:35:57;;;;;;;11.60;1.70;;;1.60;69.20;;;;;;4773040;30;20353;-81
2022/01/21 08:38:23;;;;;;;13.52;1.85;;;1.70;68.90;;;;;;4774986;30;20354;-81
2022/01/21 08:40:49;;;;;;;9.48;2.08;;;1.60;68.50;;;;;;4784887;29;20273;-81
2022/01/21 08:43:15;;;;;;;10.85;1.70;;;1.60;69.50;;;;;;4783945;30;20554;-81
2022/01/21 08:45:41;;;;;;;13.77;2.42;;;1.60;68.30;;;;;;4776588;30;20069;-81
2022/01/21 08:48:06;;;;;;;23.38;2.08;;;1.50;68.70;;;;;;4772809;30;20040;-81
2022/01/21 08:50:32;;;;;;;14.23;2.55;;;1.50;69.10;;;;;;4775215;30;20035;-81
2022/01/21 08:53:09;;;;;;;13.45;2.28;;;1.50;69.10;;;;;;4776039;30;20032;-81
2022/01/21 08:55:35;;;;;;;10.32;2.08;;;1.60;68.50;;;;;;4778608;30;20027;-81
2022/01/21 08:58:02;;;;;;;11.02;1.90;;;1.70;68.30;;;;;;4777761;30;20030;-80
2022/01/21 09:00:28;;;;;;;17.23;2.05;;;1.70;67.50;;;;;;4759312;30;20066;-80
2022/01/21 09:02:54;;;;;;;18.33;2.13;;;1.80;67.60;;;;;;4782887;30;20067;-80
2022/01/21 09:05:20;;;;;;;11.35;1.98;;;1.80;67.40;;;;;;4771189;30;20322;-81
2022/01/21 09:07:46;;;;;;;9.70;1.75;;;1.90;66.30;;;;;;4775780;30;20046;-81
2022/01/21 09:10:12;;;;;;;10.50;1.55;;;1.90;66.50;;;;;;4758627;30;20118;-80
2022/01/21 09:12:38;;;;;;;7.32;1.85;;;1.90;65.80;;;;;;4788085;30;20383;-80
2022/01/21 09:15:06;;;;;;;10.27;1.58;;;1.90;65.60;;;;;;4791030;30;20139;-80
2022/01/21 09:17:34;;;;;;;11.18;1.77;;;2.00;65.80;;;;;;4776997;30;20059;-80
2022/01/21 09:20:00;;;;;;;8.68;1.70;;;2.00;65.60;;;;;;4775387;30;20023;-81
2022/01/21 09:22:26;;;;;;;11.57;1.73;;;2.10;65.20;;;;;;4800606;29;20118;-80
2022/01/21 09:24:51;;;;;;;11.20;1.85;;;2.20;63.50;;;;;;4778463;30;20307;-80
2022/01/21 09:27:17;;;;;;;12.30;1.83;;;2.20;64.00;;;;;;4764026;30;20339;-80
2022/01/21 09:29:43;;;;;;;9.50;1.77;;;2.20;63.00;;;;;;4763490;30;20056;-80
2022/01/21 09:32:09;;;;;;;15.88;2.47;;;2.30;62.90;;;;;;4763404;30;20110;-79
2022/01/21 09:34:35;;;;;;;6.45;1.58;;;2.30;62.80;;;;;;4778233;30;20039;-80
2022/01/21 09:37:02;;;;;;;14.00;1.88;;;2.30;62.40;;;;;;4763398;30;20338;-79
2022/01/21 09:39:30;;;;;;;9.60;1.77;;;2.40;61.30;;;;;;4763416;30;20051;-79
2022/01/21 09:41:59;;;;;;;21.65;2.13;;;2.40;60.90;;;;;;4790521;29;20041;-79
2022/01/21 09:44:27;;;;;;;9.82;1.73;;;2.50;61.20;;;;;;4787254;30;20034;-80
2022/01/21 09:46:56;;;;;;;10.50;2.20;;;2.60;60.70;;;;;;4763024;30;20336;-79
2022/01/21 09:51:54;;;;;;;10.30;2.05;;;2.70;60.10;;;;;;4763171;30;20174;-80
2022/01/21 09:54:22;;;;;;;14.30;1.83;;;2.70;59.20;;;;;;4763612;30;20376;-80
2022/01/21 09:56:49;;;;;;;8.85;2.00;;;2.80;59.40;;;;;;4763053;30;20035;-80
2022/01/21 09:59:20;;;;;;;9.80;2.25;;;2.80;59.20;;;;;;4778076;30;20031;-80
2022/01/21 10:01:56;;;;;;;11.95;2.25;;;2.80;60.50;;;;;;4778023;30;20095;-80
2022/01/21 10:04:30;;;;;;;8.07;2.05;;;2.80;58.60;;;;;;4777891;30;20074;-80
2022/01/21 10:06:57;;;;;;;8.88;1.33;;;2.90;58.60;;;;;;4792635;30;20102;-80
2022/01/21 10:09:24;;;;;;;3.75;1.10;;;3.00;58.20;;;;;;4777882;30;20043;-80
2022/01/21 10:11:50;;;;;;;;;;;3.00;58.10;;;;;;4793208;30;20548;-79
2022/01/21 10:14:21;;;;;;;5.15;1.60;;;3.00;56.90;;;;;;4777870;30;19914;-80
2022/01/21 10:16:48;;;;;;;7.20;1.42;;;3.00;56.70;;;;;;4763240;30;20055;-79
2022/01/21 10:19:26;;;;;;;9.90;1.40;;;3.10;58.00;;;;;;4776443;30;20039;-79
2022/01/21 10:22:00;;;;;;;5.82;1.42;;;3.00;57.00;;;;;;4770067;30;20342;-79
2022/01/21 10:24:26;;;;;;;16.08;1.75;;;3.10;57.20;;;;;;4762767;30;20040;-79
2022/01/21 10:26:54;;;;;;;7.25;1.60;;;3.10;57.20;;;;;;4774620;30;20032;-80
2022/01/21 10:29:21;;;;;;;7.35;1.30;;;3.20;56.50;;;;;;4790668;30;20361;-79
2022/01/21 10:31:52;;;;;;;9.80;1.48;;;3.20;57.00;;;;;;4762768;30;20212;-80
2022/01/21 10:34:28;;;;;;;7.63;1.45;;;3.30;56.40;;;;;;4792525;30;20331;-79
2022/01/21 10:36:58;;;;;;;9.57;1.60;;;3.30;55.90;;;;;;4777672;30;20361;-79
2022/01/21 10:39:31;;;;;;;6.25;1.08;;;3.40;54.60;;;;;;4762882;30;20082;-79
2022/01/21 10:41:59;;;;;;;3.83;1.30;;;3.40;54.10;;;;;;4763797;30;20327;-80
2022/01/21 10:44:28;;;;;;;7.20;1.77;;;3.40;54.50;;;;;;4777788;30;20046;-79
2022/01/21 10:47:10;;;;;;;9.45;1.83;;;3.40;54.20;;;;;;4762832;30;20374;-79
2022/01/21 10:49:43;;;;;;;5.10;1.30;;;3.40;53.70;;;;;;4762840;30;20047;-79
2022/01/21 10:52:11;;;;;;;9.45;1.80;;;3.50;54.80;;;;;;4779509;30;20137;-79
2022/01/21 10:54:45;;;;;;;10.95;2.17;;;3.50;56.70;;;;;;4764481;30;20104;-79
2022/01/21 10:57:19;;;;;;;8.63;2.30;;;3.50;57.60;;;;;;4783892;30;20035;-79
2022/01/21 10:59:47;;;;;;;7.90;1.83;;;3.40;57.10;;;;;;4781683;30;20271;-79
2022/01/21 11:02:13;;;;;;;12.15;2.85;;;3.30;58.50;;;;;;4796072;30;20305;-79
2022/01/21 11:04:41;;;;;;;14.50;2.10;;;3.40;59.20;;;;;;4766172;30;20322;-79
2022/01/21 11:07:08;;;;;;;10.73;1.85;;;3.40;58.60;;;;;;4766079;30;20063;-79
2022/01/21 11:09:38;;;;;;;14.77;2.53;;;3.40;57.70;;;;;;4769023;30;20055;-80
2022/01/21 11:12:15;;;;;;;4.63;1.30;;;3.40;58.60;;;;;;4786210;30;20032;-79
2022/01/21 11:14:59;;;;;;;6.47;1.45;;;3.30;57.70;;;;;;4778640;30;20028;-80
2022/01/21 11:17:25;;;;;;;13.70;1.50;;;3.30;58.80;;;;;;4788802;30;20074;-79
2022/01/21 11:20:07;;;;;;;5.97;1.52;;;3.20;58.00;;;;;;4767022;30;20040;-80
2022/01/21 11:22:52;;;;;;;4.32;1.40;;;3.20;58.60;;;;;;4780798;30;20047;-80
2022/01/21 11:25:18;;;;;;;12.52;1.80;;;3.20;59.50;;;;;;4780862;30;20092;-80
2022/01/21 11:27:56;;;;;;;10.93;1.77;;;3.20;59.80;;;;;;4786247;30;20032;-80
2022/01/21 11:30:22;;;;;;;14.95;2.20;;;3.20;60.00;;;;;;4784757;30;20297;-80
2022/01/21 11:32:48;;;;;;;17.30;2.55;;;3.30;60.20;;;;;;4786403;29;20043;-80
2022/01/21 11:35:13;;;;;;;9.38;1.88;;;3.30;60.10;;;;;;4780002;30;20032;-80
2022/01/21 11:37:40;;;;;;;8.43;2.53;;;3.40;59.70;;;;;;4795667;30;20040;-80
2022/01/21 11:40:06;;;;;;;9.77;2.47;;;3.40;60.30;;;;;;4791822;29;20040;-80
2022/01/21 11:42:38;;;;;;;15.98;2.63;;;3.50;59.60;;;;;;4779102;30;20040;-80
2022/01/21 11:45:14;;;;;;;12.05;2.25;;;3.50;58.90;;;;;;4779035;30;20245;-80
2022/01/21 11:48:00;;;;;;;10.77;2.30;;;3.50;59.80;;;;;;4787260;30;20063;-80
2022/01/21 11:50:29;;;;;;;8.93;1.98;;;3.40;58.90;;;;;;4784536;30;20334;-80
2022/01/21 11:52:55;;;;;;;7.90;2.10;;;3.40;58.90;;;;;;4773671;30;20276;-79
2022/01/21 11:55:37;;;;;;;9.07;2.67;;;3.30;59.70;;;;;;4788334;30;20223;-80
2022/01/21 11:58:13;;;;;;;13.98;2.38;;;3.30;59.50;;;;;;4794815;29;20313;-79
2022/01/21 12:00:40;;;;;;;7.82;2.25;;;3.30;59.40;;;;;;4779076;30;20031;-80
2022/01/21 12:03:06;;;;;;;17.40;2.43;;;3.30;59.80;;;;;;4778220;30;20069;-80
2022/01/21 12:05:33;;;;;;;8.20;2.00;;;3.30;59.20;;;;;;4779198;30;20312;-80
2022/01/21 12:08:03;;;;;;;;;;;3.20;60.60;;;;;;4780198;30;20081;-80
2022/01/21 12:10:32;;;;;;;11.88;2.25;;;3.20;60.50;;;;;;4780527;30;19924;-80
2022/01/21 12:13:12;;;;;;;13.32;2.58;;;3.20;60.70;;;;;;4764868;30;20033;-80
2022/01/21 12:21:04;;;;;;;12.70;2.75;;;3.20;61.30;;;;;;4773479;30;20319;-81
2022/01/21 12:23:42;;;;;;;9.43;1.98;;;3.20;60.50;;;;;;4793461;29;20043;-79
2022/01/21 12:26:18;;;;;;;10.57;2.47;;;3.20;61.00;;;;;;4779357;30;20036;-80
2022/01/21 12:28:45;;;;;;;9.63;2.30;;;3.20;60.40;;;;;;4777772;30;20040;-80
2022/01/21 12:31:16;;;;;;;15.50;3.42;;;3.20;61.50;;;;;;4761731;30;20036;-79
2022/01/21 12:34:05;;;;;;;9.20;2.00;;;3.20;61.10;;;;;;4775143;30;20083;-80
2022/01/21 12:36:36;;;;;;;14.18;2.72;;;3.30;60.60;;;;;;4767932;30;20081;-80
2022/01/21 12:39:24;;;;;;;20.10;2.45;;;3.40;60.70;;;;;;4763083;30;20039;-80
2022/01/21 12:41:50;;;;;;;6.45;1.77;;;3.40;61.20;;;;;;4778404;30;20031;-80
2022/01/21 12:44:30;;;;;;;17.92;2.42;;;3.40;61.30;;;;;;4778046;30;20039;-81
2022/01/21 12:46:56;;;;;;;15.02;2.60;;;3.50;61.00;;;;;;4772642;30;20084;-80
2022/01/21 12:49:31;;;;;;;11.05;2.65;;;3.50;61.00;;;;;;4766734;30;20227;-80
2022/01/21 12:52:30;;;;;;;9.65;2.20;;;3.50;59.80;;;;;;4775956;30;20413;-80
2022/01/21 12:57:42;;;;;;;9.07;2.58;;;3.30;58.10;;;;;;4792301;30;20039;-80
2022/01/21 13:00:09;;;;;;;15.18;3.20;;;3.40;58.80;;;;;;4778048;30;20031;-80
2022/01/21 13:02:36;;;;;;;8.77;2.10;;;3.40;59.60;;;;;;4773018;30;20321;-80
2022/01/21 13:05:02;;;;;;;;;;;3.50;58.60;;;;;;4772507;30;20120;-80
2022/01/21 13:07:34;;;;;;;6.63;2.07;;;3.50;58.40;;;;;;4773049;30;19910;-81
2022/01/21 13:10:15;;;;;;;7.78;1.92;;;3.50;58.10;;;;;;4758343;30;20028;-80
2022/01/21 13:15:51;;;;;;;4.75;2.10;;;3.60;58.80;;;;;;4740826;30;20045;-80
2022/01/21 13:18:36;;;;;;;14.82;1.70;;;3.60;58.20;;;;;;4728978;30;20148;-80
2022/01/21 13:21:07;;;;;;;11.18;2.00;;;3.60;58.70;;;;;;4729373;30;20050;-80
2022/01/21 13:23:58;;;;;;;13.07;2.38;;;3.60;58.50;;;;;;4741011;30;20355;-80
2022/01/21 13:26:39;;;;;;;8.98;1.60;;;3.60;58.90;;;;;;4743289;30;20068;-80
2022/01/21 13:29:13;;;;;;;10.13;1.77;;;3.60;58.20;;;;;;4736870;30;20282;-79
2022/01/21 13:31:48;;;;;;;14.23;2.22;;;3.60;59.10;;;;;;4740183;30;20086;-79
2022/01/21 13:34:24;;;;;;;9.30;2.28;;;3.50;59.30;;;;;;4735777;30;20386;-80
2022/01/21 13:37:01;;;;;;;11.33;2.77;;;3.50;59.90;;;;;;4741482;30;20024;-80
2022/01/21 13:39:27;;;;;;;4.30;2.00;;;3.40;60.00;;;;;;4725345;30;20048;-80
2022/01/21 13:41:56;;;;;;;9.40;2.15;;;3.40;60.90;;;;;;4741332;30;20048;-80
2022/01/21 13:44:25;;;;;;;8.55;2.20;;;3.30;60.40;;;;;;4741069;30;20068;-80
2022/01/21 13:46:51;;;;;;;13.52;2.67;;;3.40;61.50;;;;;;4721993;30;20053;-80
2022/01/21 13:49:21;;;;;;;7.72;2.83;;;3.30;61.40;;;;;;4733399;30;20052;-80
2022/01/21 13:51:54;;;;;;;9.23;2.22;;;3.30;61.30;;;;;;4743031;30;20266;-80
2022/01/21 13:54:41;;;;;;;6.93;1.92;;;3.30;61.10;;;;;;4742978;30;20040;-80
2022/01/21 13:57:07;;;;;;;7.75;1.60;;;3.30;60.80;;;;;;4733812;30;20035;-80
2022/01/21 13:59:39;;;;;;;8.13;1.90;;;3.20;59.50;;;;;;4738556;30;20076;-80
2022/01/21 14:02:09;;;;;;;9.50;2.25;;;3.20;58.40;;;;;;4750629;30;20039;-80
2022/01/21 14:04:35;;;;;;;17.27;2.30;;;3.20;59.30;;;;;;4741092;30;20041;-80
2022/01/21 14:07:00;;;;;;;11.48;1.70;;;3.10;59.90;;;;;;4730090;30;20059;-81
2022/01/21 14:09:27;;;;;;;16.60;2.80;;;3.20;59.60;;;;;;4740864;30;20243;-81
2022/01/21 14:11:53;;;;;;;9.07;1.98;;;3.20;59.10;;;;;;4742836;30;20220;-81
2022/01/21 14:14:22;;;;;;;9.60;1.90;;;3.10;59.20;;;;;;4756555;30;20040;-81
2022/01/21 14:16:54;;;;;;;5.03;1.42;;;3.10;59.40;;;;;;4748169;30;20052;-81
2022/01/21 14:19:22;;;;;;;9.30;2.17;;;3.10;59.90;;;;;;4759807;30;20067;-81
2022/01/21 14:21:58;;;;;;;15.07;3.97;;;3.10;59.80;;;;;;4757985;30;20033;-80
2022/01/21 14:24:24;;;;;;;6.78;1.90;;;3.10;60.40;;;;;;4736061;30;20665;-80
2022/01/21 14:26:52;;;;;;;8.40;1.70;;;3.10;60.00;;;;;;4752596;30;20045;-81
2022/01/21 14:29:34;;;;;;;11.15;2.28;;;3.10;59.70;;;;;;4748137;30;20113;-81
2022/01/21 14:32:18;;;;;;;6.18;1.50;;;3.10;59.40;;;;;;4743906;30;20066;-80
2022/01/21 14:34:45;;;;;;;8.10;2.22;;;3.10;59.80;;;;;;4752046;30;20161;-80
2022/01/21 14:37:14;;;;;;;12.27;2.15;;;3.20;58.90;;;;;;4729948;30;20323;-79
2022/01/21 14:39:43;;;;;;;7.53;1.73;;;3.10;59.10;;;;;;4765240;30;20043;-81
2022/01/21 14:42:10;;;;;;;8.52;1.73;;;3.10;58.70;;;;;;4761586;30;20036;-81
2022/01/21 14:44:42;;;;;;;6.32;1.98;;;3.20;58.80;;;;;;4736179;30;20128;-81
2022/01/21 14:47:13;;;;;;;8.35;2.03;;;3.20;58.20;;;;;;4778275;30;20104;-81
2022/01/21 14:49:41;;;;;;;5.70;1.40;;;3.20;58.90;;;;;;4795030;29;20085;-81
2022/01/21 14:54:53;;;;;;;10.68;2.05;;;3.20;57.90;;;;;;4781619;30;20227;-81
2022/01/21 14:57:28;;;;;;;7.88;1.50;;;3.20;57.70;;;;;;4787481;30;20102;-81
2022/01/21 14:59:56;;;;;;;9.65;1.88;;;3.30;58.90;;;;;;4763673;30;20115;-81
2022/01/21 15:02:37;;;;;;;5.35;1.50;;;3.20;58.70;;;;;;4774775;30;20077;-81
2022/01/21 15:05:14;;;;;;;6.22;2.28;;;3.20;58.90;;;;;;4762482;30;20323;-81
2022/01/21 15:07:42;;;;;;;9.68;2.10;;;3.20;60.40;;;;;;4793273;30;20111;-81
2022/01/21 15:10:22;;;;;;;14.05;2.70;;;3.10;60.60;;;;;;4785160;30;20231;-80
2022/01/21 15:15:44;;;;;;;16.23;2.92;;;3.20;61.90;;;;;;4775274;30;20094;-81
2022/01/21 15:18:14;;;;;;;9.32;2.28;;;3.10;62.30;;;;;;4776656;30;20039;-81
2022/01/21 15:20:43;;;;;;;13.55;2.63;;;3.10;62.70;;;;;;4779658;30;20099;-81
2022/01/21 15:23:09;;;;;;;8.32;1.58;;;3.10;63.00;;;;;;4792446;30;20047;-81
2022/01/21 15:25:35;;;;;;;9.35;1.80;;;3.10;63.80;;;;;;4767590;30;20081;-81
2022/01/21 15:28:02;;;;;;;8.77;2.13;;;3.10;64.10;;;;;;4793777;30;20036;-80
2022/01/21 15:30:28;;;;;;;;;;;3.10;64.30;;;;;;4765694;30;20052;-81
2022/01/21 15:32:55;;;;;;;9.05;1.60;;;3.10;64.90;;;;;;4778791;30;19910;-81
2022/01/21 15:35:22;;;;;;;6.13;2.10;;;3.00;65.20;;;;;;4781951;30;20290;-81
2022/01/21 15:37:48;;;;;;;10.05;2.17;;;3.00;66.80;;;;;;4775245;30;20061;-81
2022/01/21 15:40:14;;;;;;;14.43;2.07;;;2.90;67.20;;;;;;4772005;30;20231;-81
2022/01/21 15:42:44;;;;;;;9.67;2.20;;;2.90;67.60;;;;;;4775923;30;20051;-80
2022/01/21 15:45:11;;;;;;;6.07;1.92;;;2.90;67.30;;;;;;4766838;30;20040;-81
2022/01/21 15:47:40;;;;;;;7.78;2.00;;;2.90;67.10;;;;;;4775125;30;20078;-81
2022/01/21 15:50:10;;;;;;;8.35;2.20;;;2.90;67.10;;;;;;4770885;30;20099;-81
2022/01/21 15:52:36;;;;;;;8.75;2.38;;;2.90;67.40;;;;;;4778410;30;20330;-81
2022/01/21 15:55:04;;;;;;;9.10;2.05;;;2.90;67.30;;;;;;4764158;30;20347;-81
2022/01/21 15:57:30;;;;;;;10.32;2.45;;;2.90;67.20;;;;;;4793711;30;20040;-81
2022/01/21 15:59:56;;;;;;;15.07;2.72;;;2.90;67.80;;;;;;4775299;30;20107;-81
2022/01/21 16:02:23;;;;;;;10.82;2.75;;;2.90;67.30;;;;;;4777428;30;20039;-82
2022/01/21 16:04:50;;;;;;;10.40;2.42;;;3.00;67.20;;;;;;4792930;30;20055;-81
2022/01/21 16:07:17;;;;;;;7.95;2.75;;;3.00;67.10;;;;;;4765376;30;20048;-81
2022/01/21 16:09:43;;;;;;;;;;;3.00;67.50;;;;;;4770812;30;20235;-81
2022/01/21 16:12:09;;;;;;;11.87;2.70;;;3.00;68.00;;;;;;4786413;30;19918;-81
2022/01/21 16:14:35;;;;;;;10.87;2.60;;;3.00;68.30;;;;;;4760712;30;20154;-81
2022/01/21 16:17:02;;;;;;;13.73;3.63;;;3.00;69.10;;;;;;4792689;30;20040;-81
2022/01/21 16:19:28;;;;;;;14.27;2.72;;;3.00;70.30;;;;;;4764476;30;20046;-82
2022/01/21 16:21:53;;;;;;;11.38;2.33;;;2.90;72.10;;;;;;4793708;30;20074;-81
2022/01/21 16:24:19;;;;;;;10.13;2.60;;;2.80;73.10;;;;;;4778965;30;20063;-82
2022/01/21 16:26:46;;;;;;;5.97;2.58;;;2.90;74.50;;;;;;4763075;30;20035;-81
2022/01/21 16:29:15;;;;;;;15.43;4.07;;;2.80;75.80;;;;;;4778565;30;20039;-82
2022/01/21 16:31:45;;;;;;;15.15;3.45;;;2.80;77.50;;;;;;4793256;30;20042;-81
2022/01/21 16:34:12;;;;;;;18.10;3.97;;;2.80;79.70;;;;;;4773002;30;20043;-81
2022/01/21 16:36:38;;;;;;;10.07;3.13;;;2.70;82.50;;;;;;4756701;30;20089;-81
2022/01/21 16:39:05;;;;;;;15.10;3.25;;;2.70;87.00;;;;;;4785431;30;20043;-80
2022/01/21 16:41:31;;;;;;;11.77;3.15;;;2.60;87.50;;;;;;4777999;30;20028;-82
2022/01/21 16:43:57;;;;;;;14.60;4.00;;;2.50;90.00;;;;;;4777343;30;20046;-81
2022/01/21 16:46:24;;;;;;;12.70;2.88;;;2.40;90.20;;;;;;4763552;30;20059;-80
2022/01/21 16:48:50;;;;;;;18.40;2.97;;;2.30;90.30;;;;;;4774267;30;20044;-81
2022/01/21 16:51:16;;;;;;;16.17;2.67;;;2.40;90.40;;;;;;4762692;30;20050;-80
2022/01/21 16:53:42;;;;;;;17.87;3.87;;;2.30;90.10;;;;;;4764839;30;20032;-81
2022/01/21 16:56:09;;;;;;;17.48;3.13;;;2.30;89.20;;;;;;4771313;30;20292;-81
2022/01/21 16:58:35;;;;;;;14.73;3.47;;;2.40;88.60;;;;;;4791530;30;20231;-81
2022/01/21 17:01:02;;;;;;;7.22;2.30;;;2.40;88.20;;;;;;4777865;30;20031;-80
2022/01/21 17:03:28;;;;;;;;;;;2.40;87.80;;;;;;4772962;30;20028;-82
2022/01/21 17:05:54;;;;;;;15.00;2.57;;;2.40;87.50;;;;;;4752880;30;20241;-82
2022/01/21 17:08:21;;;;;;;10.30;2.42;;;2.40;87.10;;;;;;4758381;30;20036;-82
2022/01/21 17:10:48;;;;;;;10.70;2.60;;;2.40;86.90;;;;;;4769220;30;20494;-80
2022/01/21 17:13:14;;;;;;;8.10;2.55;;;2.40;87.60;;;;;;4769533;30;20032;-81
2022/01/21 17:15:40;;;;;;;10.15;3.47;;;2.50;87.70;;;;;;4777690;30;20036;-82
2022/01/21 17:18:09;;;;;;;11.98;3.15;;;2.40;87.90;;;;;;4770552;30;20204;-80
2022/01/21 17:20:35;;;;;;;10.45;2.83;;;2.40;88.60;;;;;;4770717;30;20028;-81